Joshua, Illinois
Current Conditions -  °F | °C
As of 10:35 PM on Friday 24 Oct 2014 (Local Time) from KGBG Reporting Station
Scattered Clouds Scattered Clouds  
Wind Chill: 57°   Ceiling: Unl
Heat Index: 57°   Visibility: 10mi
Dew Point: 52°   Wind: 5mph
Humidity: 82%   Direction: 190°S
Pressure: 29.95"   Gusts: NA
Location:  40.6688°N, 90.1616°W
Report Text: KGBG 250335Z AUTO 19004KT 10SM SCT029 SCT036 14/11 A2995 RMK AO2 T01410110
Loading
Personal Weather Stations






























Interactive Weather Map
Tropical Storm Tracking
New forecast layout! Learn more

10-Day Weather Forecast

Advertisements
Track Severe Weather on mobile